map of SHO home
SHO - Airport
Location
City:  Manzini, Lubombo, Swaziland
Name:King Mswati III International Airport
Old (Alt.):Sikhuphe International Airport
ICAO:FDSK
IATA:SHO

Details
Type:Airport (Aerodrome, Airfield)
Use:Public/Civil, International (customs port of entry)
Latitude:2621'31"S (-26.358610)
Longitude:3143'01"E (31.716944)
Elevation:1073 ft (327 m)
Variation:20.41W (WMM2015 magnetic declination)
-0.12 annual change
Runways:1
Longest:11811 × 131 ft (3600 × 40 m), paved

Time
Time Zone:UTC+2
Local Time:

Weather
METAR:FDSK 031500Z 03014KT CAVOK 28/17 Q1013 NOSIG

Related Locations
Nearby:
Farthest:HNM: 11819 mi / 19020 km
Hana, Maui, HI, US

Find:

   beyond  
but within

Other Information
Maps:
NOTAMs:
Links:
Sources:

  
flag of Swaziland   

Sectional Chart

Flight Planning
at skyvector.com

Satellite Image

Google Maps Satellite view

 

Copyright © 2004-2016 Karl L. Swartz. All rights reserved.
The Great Circle Mapper name and logo are trademarks of the Great Circle Mapper.
All other trademarks mentioned herein belong to their respective owners.
Please see credits for attibutions and further copyright information.

  Follow gcmap on Facebook Follow gcmap on Twitter Follow gcmap on Google+ GCmap on LinkedIn

hCard Microformat

Geo Microformat